Impacts METAR Board
IDs:

KAQO - Llano Muni, TX, US

Updated at: 0400 UTC 06 Dec 2019
Potential Impact None Slight Moderate High
Time 05/16Z 05/17Z 05/18Z 05/19Z 05/20Z 05/21Z 05/22Z 05/23Z 06/00Z 06/01Z 06/02Z 06/03Z 06/04Z
Temp63 70 75 81 84 82 82 81 73 72 66 66 64
Dewpt46 50 48 43 45 41 41 45 50 52 52 54 54
Altim30.06 30.05 30.02 29.97 29.93 29.91 29.91 29.92 29.94 29.96 29.98 30.01 30.03
VIS10 10 10 10 10 10 10 10 10 10 10 10 10
CIG-- -- -- -- -- -- -- -- -- -- -- -- --
CoverCLRCLRCLRCLRCLRCLRCLRCLRCLRCLRCLRCLRCLR
FltCatVFRVFRVFRVFRVFRVFRVFRVFRVFRVFRVFRVFRVFR
WX--------------------------
WDir0002302102302201901802000260270
WSpd0 0 0 8 11 10 8 9 7 6 0 3 4
WGst-- -- -- -- -- -- 14 -- -- -- -- -- --
Raw hourly METARs
KAQO 051555Z AUTO 00000KT 10SM CLR 17/08 A3006 RMK AO2 PWINO
KAQO 051655Z AUTO 00000KT 10SM CLR 21/10 A3005 RMK AO2 PWINO
KAQO 051755Z AUTO 00000KT 10SM CLR 24/09 A3002 RMK AO2 PWINO
KAQO 051855Z AUTO 23008KT 10SM CLR 27/06 A2997 RMK AO2 PWINO
KAQO 051955Z AUTO 21011KT 10SM CLR 29/07 A2993 RMK AO2 PWINO
KAQO 052055Z AUTO 23010KT 10SM CLR 28/05 A2991 RMK AO2 PWINO
KAQO 052155Z AUTO 22008G14KT 10SM CLR 28/05 A2991 RMK AO2 PWINO
KAQO 052255Z AUTO 19009KT 10SM CLR 27/07 A2992 RMK AO2 PWINO
KAQO 052355Z AUTO 18007KT 10SM CLR 23/10 A2994 RMK AO2 PWINO
KAQO 060055Z AUTO 20006KT 10SM CLR 22/11 A2996 RMK AO2 PWINO
KAQO 060155Z AUTO 00000KT 10SM CLR 19/11 A2998 RMK AO2 PWINO
KAQO 060255Z AUTO 26003KT 10SM CLR 19/12 A3001 RMK AO2 PWINO
KAQO 060355Z AUTO 27004KT 10SM CLR 18/12 A3003 RMK AO2 PWINO